createdAt,value
2022-08-05T00:00:16.167Z,10.77
2022-08-05T00:02:51.584Z,10.76
2022-08-05T00:06:03.301Z,10.85
2022-08-05T00:08:30.858Z,10.86
2022-08-05T00:11:00.389Z,10.84
2022-08-05T00:13:38.730Z,10.78
2022-08-05T00:16:12.685Z,10.71
2022-08-05T00:18:42.079Z,10.62
2022-08-05T00:21:09.617Z,10.58
2022-08-05T00:23:45.781Z,10.56
2022-08-05T00:26:16.438Z,10.61
2022-08-05T00:28:44.018Z,10.64
2022-08-05T00:31:13.378Z,10.71
2022-08-05T00:34:53.629Z,10.77
2022-08-05T00:37:09.861Z,10.80
2022-08-05T00:39:14.505Z,10.85
2022-08-05T00:41:55.289Z,10.87
2022-08-05T00:44:30.778Z,10.90
2022-08-05T00:47:02.161Z,10.91
2022-08-05T00:49:44.380Z,10.93
2022-08-05T00:52:18.381Z,10.96
2022-08-05T00:54:56.010Z,11.01
2022-08-05T00:57:25.228Z,11.04
2022-08-05T00:59:58.465Z,11.09
2022-08-05T01:02:25.347Z,11.13
2022-08-05T01:04:55.009Z,11.15
2022-08-05T01:07:22.322Z,11.19
2022-08-05T01:09:59.101Z,11.21
2022-08-05T01:12:29.753Z,11.23
2022-08-05T01:15:07.059Z,11.26
2022-08-05T01:18:03.753Z,11.23
2022-08-05T01:20:49.020Z,11.23
2022-08-05T01:23:34.975Z,11.18
2022-08-05T01:26:19.276Z,11.13
2022-08-05T01:28:57.325Z,11.05
2022-08-05T01:31:51.764Z,10.98
2022-08-05T01:34:26.736Z,10.91
2022-08-05T01:37:06.176Z,10.82
2022-08-05T01:39:46.778Z,10.85
2022-08-05T01:42:19.780Z,10.92
2022-08-05T01:44:53.873Z,10.98
2022-08-05T01:47:24.656Z,11.06
2022-08-05T01:50:15.381Z,11.14
2022-08-05T01:52:44.575Z,11.20
2022-08-05T01:55:20.837Z,11.19
2022-08-05T01:58:11.342Z,11.22
2022-08-05T02:00:42.640Z,11.29
2022-08-05T02:03:24.614Z,11.29
2022-08-05T02:06:00.977Z,11.29
2022-08-05T02:08:31.586Z,11.24
2022-08-05T02:11:12.713Z,11.17
2022-08-05T02:13:53.790Z,11.04
2022-08-05T02:16:52.465Z,10.95
2022-08-05T02:19:47.043Z,10.81
2022-08-05T02:22:49.814Z,10.74
2022-08-05T02:25:25.093Z,10.69
2022-08-05T02:27:59.645Z,10.65
2022-08-05T02:30:34.406Z,10.72
2022-08-05T02:33:03.897Z,10.79
2022-08-05T02:35:38.166Z,10.78
2022-08-05T02:38:19.426Z,10.82
2022-08-05T02:40:47.461Z,10.88
2022-08-05T02:43:16.930Z,10.88
2022-08-05T02:45:52.276Z,10.86
2022-08-05T02:48:29.171Z,10.91
2022-08-05T02:51:01.573Z,10.91
2022-08-05T02:53:39.018Z,10.91
2022-08-05T02:56:08.671Z,10.93
2022-08-05T02:58:37.357Z,10.94
2022-08-05T03:01:33.672Z,10.95
2022-08-05T03:04:12.032Z,10.94
2022-08-05T03:06:56.160Z,10.95
2022-08-05T03:09:27.155Z,10.95
2022-08-05T03:12:05.809Z,10.93
2022-08-05T03:14:32.800Z,10.94
2022-08-05T03:17:00.864Z,10.98
2022-08-05T03:19:33.728Z,11.01
2022-08-05T03:22:01.629Z,11.05
2022-08-05T03:24:30.780Z,11.08
2022-08-05T03:26:59.203Z,11.12
2022-08-05T03:29:45.357Z,11.10
2022-08-05T03:32:15.609Z,11.04
2022-08-05T03:34:50.560Z,11.14
2022-08-05T03:37:19.824Z,11.14
2022-08-05T03:40:01.090Z,11.15
2022-08-05T03:42:32.318Z,11.15
2022-08-05T03:45:01.829Z,11.16
2022-08-05T03:47:35.207Z,11.17
2022-08-05T03:50:02.631Z,11.18
2022-08-05T03:52:36.906Z,11.19
2022-08-05T03:56:10.054Z,11.20
2022-08-05T03:58:29.051Z,11.22
2022-08-05T04:00:59.148Z,11.24
2022-08-05T04:03:29.350Z,11.24
2022-08-05T04:05:59.175Z,11.25
2022-08-05T04:08:30.357Z,11.27
2022-08-05T04:11:04.407Z,11.22
2022-08-05T04:13:50.170Z,11.29
2022-08-05T04:16:24.125Z,11.28
2022-08-05T04:18:54.428Z,11.27
2022-08-05T04:22:09.220Z,11.23
2022-08-05T04:24:18.727Z,11.25
2022-08-05T04:26:49.022Z,11.23
2022-08-05T04:29:15.956Z,11.19
2022-08-05T04:31:43.029Z,11.13
2022-08-05T04:34:18.330Z,11.05
2022-08-05T04:36:50.135Z,10.91
2022-08-05T04:39:20.539Z,10.81
2022-08-05T04:41:50.961Z,10.73
2022-08-05T04:44:21.316Z,10.68
2022-08-05T04:46:57.483Z,10.67
2022-08-05T04:49:38.596Z,10.67
2022-08-05T04:52:12.738Z,10.70
2022-08-05T04:54:39.681Z,10.71
2022-08-05T04:57:06.621Z,10.67
2022-08-05T04:59:40.550Z,10.68
2022-08-05T05:02:36.998Z,10.67
2022-08-05T05:05:02.301Z,10.64
2022-08-05T05:07:32.445Z,10.67
2022-08-05T05:10:02.149Z,10.73
2022-08-05T05:12:30.018Z,10.80
2022-08-05T05:14:57.051Z,10.84
2022-08-05T05:17:55.822Z,10.91
2022-08-05T05:20:12.871Z,10.93
2022-08-05T05:22:41.020Z,10.90
2022-08-05T05:25:17.038Z,10.91
2022-08-05T05:27:53.581Z,10.82
2022-08-05T05:30:30.825Z,10.80
2022-08-05T05:33:03.786Z,10.72
2022-08-05T05:35:42.644Z,10.67
2022-08-05T05:38:13.090Z,10.70
2022-08-05T05:40:48.369Z,10.84
2022-08-05T05:43:27.614Z,10.99
2022-08-05T05:46:13.616Z,11.08
2022-08-05T05:48:44.292Z,11.12
2022-08-05T05:51:15.820Z,11.14
2022-08-05T05:53:54.559Z,11.14
2022-08-05T05:56:31.957Z,11.15
2022-08-05T05:59:03.532Z,11.20
2022-08-05T06:01:37.578Z,11.29
2022-08-05T06:04:08.321Z,11.40
2022-08-05T06:06:41.762Z,11.54
2022-08-05T06:09:09.623Z,11.60
2022-08-05T06:12:01.696Z,11.67
2022-08-05T06:14:34.626Z,11.70
2022-08-05T06:17:22.419Z,11.72
2022-08-05T06:19:56.756Z,11.75
2022-08-05T06:22:33.562Z,11.66
2022-08-05T06:25:01.739Z,11.64
2022-08-05T06:28:10.447Z,11.56
2022-08-05T06:30:35.418Z,11.50
2022-08-05T06:33:02.559Z,11.44
2022-08-05T06:36:05.807Z,11.41
2022-08-05T06:38:16.527Z,11.49
2022-08-05T06:40:44.417Z,11.77
2022-08-05T06:43:58.933Z,12.15
2022-08-05T06:46:03.932Z,12.86
2022-08-05T06:48:47.182Z,13.15
2022-08-05T06:51:29.335Z,13.26
2022-08-05T06:54:02.007Z,13.28
2022-08-05T06:56:34.365Z,13.30
2022-08-05T06:59:01.665Z,13.25
2022-08-05T07:01:32.222Z,13.24
2022-08-05T07:04:02.267Z,13.27
2022-08-05T07:06:30.128Z,13.28
2022-08-05T07:08:59.041Z,13.27
2022-08-05T07:11:28.222Z,13.34
2022-08-05T07:14:15.784Z,13.42
2022-08-05T07:17:59.331Z,13.56
2022-08-05T07:22:27.879Z,13.52
2022-08-05T07:25:22.046Z,13.49
2022-08-05T07:27:57.770Z,13.61
2022-08-05T07:30:32.770Z,13.85
2022-08-05T07:33:05.449Z,14.12
2022-08-05T07:36:02.373Z,14.50
2022-08-05T07:38:33.197Z,14.96
2022-08-05T07:42:08.709Z,14.99
2022-08-05T07:43:57.017Z,15.14
2022-08-05T07:46:28.975Z,15.13
2022-08-05T07:49:01.587Z,15.22
2022-08-05T07:51:37.134Z,15.30
2022-08-05T07:54:05.629Z,15.39
2022-08-05T07:57:01.154Z,15.41
2022-08-05T07:59:23.257Z,15.32
2022-08-05T08:01:58.493Z,15.22
2022-08-05T08:04:37.858Z,15.02
2022-08-05T08:07:07.218Z,15.11
2022-08-05T08:09:35.166Z,14.93
2022-08-05T08:12:12.515Z,15.05
2022-08-05T08:14:48.723Z,15.04
2022-08-05T08:17:21.515Z,14.91
2022-08-05T08:20:21.418Z,14.96
2022-08-05T08:22:36.087Z,14.92
2022-08-05T08:25:03.930Z,15.05
2022-08-05T08:27:47.634Z,15.18
2022-08-05T08:30:28.465Z,15.66
2022-08-05T08:33:04.502Z,16.06
2022-08-05T08:35:34.811Z,16.48
2022-08-05T08:38:07.675Z,16.14
2022-08-05T08:40:35.888Z,16.38
2022-08-05T08:45:16.839Z,16.48
2022-08-05T08:45:54.409Z,16.59
2022-08-05T08:49:03.052Z,16.26
2022-08-05T08:52:02.040Z,16.88
2022-08-05T08:53:57.067Z,17.45
2022-08-05T08:56:27.141Z,18.19
2022-08-05T08:58:55.059Z,18.68
2022-08-05T09:01:25.642Z,18.44
2022-08-05T09:03:57.322Z,19.38
2022-08-05T09:06:30.369Z,19.50
2022-08-05T09:09:02.383Z,20.14
2022-08-05T09:11:53.430Z,20.07
2022-08-05T09:14:58.932Z,20.75
2022-08-05T09:17:09.812Z,20.62
2022-08-05T09:20:02.650Z,20.08
2022-08-05T09:23:07.831Z,19.33
2022-08-05T09:26:02.880Z,19.14
2022-08-05T09:28:31.478Z,18.95
2022-08-05T09:32:38.640Z,18.67
2022-08-05T09:34:09.627Z,18.76
2022-08-05T09:36:55.323Z,19.34
2022-08-05T09:39:27.801Z,19.49
2022-08-05T09:42:13.622Z,19.88
2022-08-05T09:44:56.756Z,19.71
2022-08-05T09:47:30.679Z,19.59
2022-08-05T09:50:38.253Z,19.16
2022-08-05T09:53:06.138Z,18.99
2022-08-05T09:55:56.142Z,18.75
2022-08-05T09:58:24.593Z,18.82
2022-08-05T10:01:01.836Z,18.36
2022-08-05T10:03:58.483Z,18.31
2022-08-05T10:06:28.035Z,18.22
2022-08-05T10:08:55.787Z,18.79
2022-08-05T10:11:23.047Z,19.06
2022-08-05T10:13:54.699Z,19.55
2022-08-05T10:16:41.918Z,19.90
2022-08-05T10:19:23.730Z,20.48
2022-08-05T10:21:59.730Z,20.86
2022-08-05T10:24:27.405Z,20.33
2022-08-05T10:27:00.508Z,19.84
2022-08-05T10:30:06.519Z,19.79
2022-08-05T10:32:55.538Z,19.11
2022-08-05T10:35:04.422Z,19.13
2022-08-05T10:37:40.103Z,19.86
2022-08-05T10:40:28.996Z,19.65
2022-08-05T10:43:08.053Z,19.30
2022-08-05T10:45:40.473Z,19.16
2022-08-05T10:48:40.619Z,18.91
2022-08-05T10:51:23.102Z,19.36
2022-08-05T10:54:01.625Z,19.66
2022-08-05T10:56:49.292Z,19.52
2022-08-05T11:00:03.741Z,18.97
2022-08-05T11:02:34.815Z,18.87
2022-08-05T11:05:05.954Z,19.36
2022-08-05T11:08:01.722Z,19.71
2022-08-05T11:10:27.409Z,19.95
2022-08-05T11:12:57.869Z,19.46
2022-08-05T11:16:00.303Z,19.29
2022-08-05T11:18:32.551Z,19.57
2022-08-05T11:21:06.139Z,19.58
2022-08-05T11:24:04.924Z,19.72
2022-08-05T11:26:43.359Z,19.80
2022-08-05T11:29:42.978Z,20.10
2022-08-05T11:32:27.806Z,20.34
2022-08-05T11:34:55.980Z,20.92
2022-08-05T11:38:28.304Z,21.26
2022-08-05T11:41:54.558Z,21.32
2022-08-05T11:44:40.494Z,21.48
2022-08-05T11:47:10.502Z,21.50
2022-08-05T11:49:43.030Z,22.28
2022-08-05T11:52:11.593Z,22.06
2022-08-05T11:54:41.279Z,22.06
2022-08-05T11:57:26.089Z,22.52
2022-08-05T11:59:55.269Z,23.58
2022-08-05T12:02:31.621Z,23.57
2022-08-05T12:05:07.558Z,23.12
2022-08-05T12:08:07.528Z,23.11
2022-08-05T12:10:39.051Z,22.67
2022-08-05T12:13:28.172Z,22.00
2022-08-05T12:16:17.648Z,21.26
2022-08-05T12:18:49.622Z,20.82
2022-08-05T12:21:23.708Z,20.50
2022-08-05T12:23:54.622Z,20.59
2022-08-05T12:26:23.127Z,20.81
2022-08-05T12:28:51.134Z,20.42
2022-08-05T12:31:23.705Z,19.79
2022-08-05T12:34:09.322Z,20.02
2022-08-05T12:36:48.107Z,20.39
2022-08-05T12:39:15.113Z,20.98
2022-08-05T12:41:43.869Z,21.95
2022-08-05T12:44:14.139Z,22.81
2022-08-05T12:46:45.729Z,23.37
2022-08-05T12:49:19.087Z,23.13
2022-08-05T12:52:12.755Z,23.08
2022-08-05T12:54:45.507Z,22.56
2022-08-05T12:57:13.425Z,22.33
2022-08-05T13:01:57.418Z,22.29
2022-08-05T13:02:36.229Z,22.51
2022-08-05T13:05:06.986Z,22.68
2022-08-05T13:07:59.286Z,23.13
2022-08-05T13:10:20.893Z,22.99
2022-08-05T13:12:57.163Z,22.98
2022-08-05T13:15:41.242Z,22.91
2022-08-05T13:18:09.215Z,23.36
2022-08-05T13:20:40.488Z,23.70
2022-08-05T13:23:07.742Z,23.54
2022-08-05T13:25:52.817Z,23.57
2022-08-05T13:28:22.444Z,23.04
2022-08-05T13:30:51.223Z,23.44
2022-08-05T13:34:22.810Z,23.37
2022-08-05T13:36:09.522Z,23.38
2022-08-05T13:38:42.436Z,23.06
2022-08-05T13:41:11.697Z,23.44
2022-08-05T13:43:43.989Z,23.97
2022-08-05T13:46:37.695Z,24.15
2022-08-05T13:49:11.780Z,23.51
2022-08-05T13:51:40.970Z,24.09
2022-08-05T13:54:11.921Z,23.86
2022-08-05T13:56:40.051Z,23.11
2022-08-05T13:59:20.071Z,22.40
2022-08-05T14:01:56.594Z,22.61
2022-08-05T14:04:57.247Z,23.13
2022-08-05T14:08:00.162Z,22.83
2022-08-05T14:10:28.939Z,23.32
2022-08-05T14:12:59.418Z,22.76
2022-08-05T14:16:08.954Z,23.09
2022-08-05T14:18:17.420Z,22.92
2022-08-05T14:20:46.922Z,22.91
2022-08-05T14:23:14.724Z,23.15
2022-08-05T14:25:54.027Z,23.43
2022-08-05T14:28:26.229Z,23.13
2022-08-05T14:30:54.673Z,23.39
2022-08-05T14:33:23.244Z,23.54
2022-08-05T14:35:52.048Z,23.41
2022-08-05T14:38:32.937Z,23.73
2022-08-05T14:41:06.898Z,23.92
2022-08-05T14:43:59.434Z,23.82
2022-08-05T14:46:28.845Z,23.41
2022-08-05T14:48:59.546Z,22.67
2022-08-05T14:51:31.052Z,21.79
2022-08-05T14:54:26.297Z,22.07
2022-08-05T14:56:46.893Z,22.60
2022-08-05T14:59:15.364Z,22.94
2022-08-05T15:01:48.342Z,23.31
2022-08-05T15:04:16.959Z,23.55
2022-08-05T15:06:49.464Z,23.34
2022-08-05T15:09:50.605Z,23.02
2022-08-05T15:12:06.266Z,23.25
2022-08-05T15:14:48.205Z,23.57
2022-08-05T15:17:47.132Z,23.67
2022-08-05T15:20:19.085Z,22.97
2022-08-05T15:22:52.148Z,22.44
2022-08-05T15:25:23.521Z,22.24
2022-08-05T15:28:08.975Z,21.53
2022-08-05T15:30:41.462Z,21.53
2022-08-05T15:33:10.444Z,21.89
2022-08-05T15:35:45.198Z,21.92
2022-08-05T15:38:35.582Z,22.21
2022-08-05T15:41:23.077Z,22.56
2022-08-05T15:43:47.360Z,21.77
2022-08-05T15:46:14.540Z,21.71
2022-08-05T15:48:52.786Z,21.42
2022-08-05T15:52:12.540Z,21.37
2022-08-05T15:54:15.904Z,21.33
2022-08-05T15:56:43.603Z,21.36
2022-08-05T15:59:21.700Z,20.97
2022-08-05T16:01:52.322Z,20.72
2022-08-05T16:04:25.195Z,20.73
2022-08-05T16:06:52.249Z,20.66
2022-08-05T16:09:19.309Z,21.02
2022-08-05T16:11:52.774Z,21.30
2022-08-05T16:14:20.207Z,21.33
2022-08-05T16:16:47.413Z,21.46
2022-08-05T16:19:25.401Z,21.49
2022-08-05T16:22:03.324Z,20.90
2022-08-05T16:24:40.994Z,20.44
2022-08-05T16:27:17.987Z,20.48
2022-08-05T16:29:50.383Z,20.07
2022-08-05T16:32:28.467Z,20.21
2022-08-05T16:34:56.583Z,20.06
2022-08-05T16:38:16.394Z,19.99
2022-08-05T16:40:25.009Z,19.97
2022-08-05T16:42:55.875Z,20.03
2022-08-05T16:46:04.033Z,20.10
2022-08-05T16:48:10.336Z,20.08
2022-08-05T16:50:37.595Z,19.97
2022-08-05T16:53:12.317Z,19.92
2022-08-05T16:55:49.209Z,19.77
2022-08-05T16:58:19.628Z,19.45
2022-08-05T17:00:48.168Z,19.13
2022-08-05T17:03:20.132Z,18.83
2022-08-05T17:05:51.801Z,18.74
2022-08-05T17:08:36.748Z,18.85
2022-08-05T17:11:12.582Z,19.00
2022-08-05T17:13:45.396Z,19.16
2022-08-05T17:16:32.526Z,19.24
2022-08-05T17:19:00.268Z,19.29
2022-08-05T17:21:35.663Z,19.28
2022-08-05T17:24:09.321Z,19.24
2022-08-05T17:26:52.891Z,19.11
2022-08-05T17:29:22.272Z,18.98
2022-08-05T17:31:58.756Z,18.86
2022-08-05T17:34:29.771Z,18.82
2022-08-05T17:36:57.172Z,18.70
2022-08-05T17:39:29.787Z,18.63
2022-08-05T17:42:19.228Z,18.41
2022-08-05T17:44:50.500Z,18.25
2022-08-05T17:47:21.954Z,18.16
2022-08-05T17:50:00.243Z,18.11
2022-08-05T17:52:32.398Z,17.93
2022-08-05T17:54:59.850Z,17.83
2022-08-05T17:57:27.717Z,17.72
2022-08-05T18:00:03.483Z,17.63
2022-08-05T18:02:36.135Z,17.57
2022-08-05T18:05:07.741Z,17.54
2022-08-05T18:07:41.748Z,17.50
2022-08-05T18:10:11.568Z,17.41
2022-08-05T18:12:41.075Z,17.34
2022-08-05T18:15:09.060Z,17.33
2022-08-05T18:18:00.393Z,17.18
2022-08-05T18:20:29.429Z,17.19
2022-08-05T18:23:04.901Z,17.12
2022-08-05T18:25:39.164Z,17.00
2022-08-05T18:28:07.140Z,16.88
2022-08-05T18:30:39.130Z,16.85
2022-08-05T18:33:08.613Z,16.86
2022-08-05T18:36:01.332Z,16.81
2022-08-05T18:38:28.866Z,16.78
2022-08-05T18:41:56.634Z,16.73
2022-08-05T18:43:48.789Z,16.65
2022-08-05T18:46:19.756Z,16.62
2022-08-05T18:48:48.337Z,16.47
2022-08-05T18:52:04.324Z,16.41
2022-08-05T18:54:28.483Z,16.23
2022-08-05T18:56:59.288Z,16.04
2022-08-05T18:59:42.730Z,15.97
2022-08-05T19:02:28.051Z,15.85
2022-08-05T19:06:05.840Z,15.71
2022-08-05T19:07:52.762Z,15.58
2022-08-05T19:10:26.559Z,15.48
2022-08-05T19:12:56.332Z,15.39
2022-08-05T19:15:57.410Z,15.34
2022-08-05T19:18:21.027Z,15.29
2022-08-05T19:20:52.491Z,15.21
2022-08-05T19:24:06.251Z,15.12
2022-08-05T19:26:08.431Z,14.99
2022-08-05T19:28:41.677Z,14.87
2022-08-05T19:31:13.393Z,14.71
2022-08-05T19:33:48.687Z,14.64
2022-08-05T19:36:25.063Z,14.49
2022-08-05T19:38:53.852Z,14.40
2022-08-05T19:41:21.898Z,14.33
2022-08-05T19:44:13.399Z,14.22
2022-08-05T19:46:41.506Z,14.12
2022-08-05T19:49:16.387Z,14.03
2022-08-05T19:52:08.505Z,13.95
2022-08-05T19:54:34.076Z,13.84
2022-08-05T19:57:08.436Z,13.73
2022-08-05T19:59:55.837Z,13.60
2022-08-05T20:02:24.513Z,13.58
2022-08-05T20:04:55.010Z,13.49
2022-08-05T20:07:46.647Z,13.39
2022-08-05T20:10:13.756Z,13.28
2022-08-05T20:12:46.016Z,13.19
2022-08-05T20:15:48.318Z,13.09
2022-08-05T20:18:09.801Z,13.02
2022-08-05T20:20:55.190Z,13.00
2022-08-05T20:23:40.122Z,12.95
2022-08-05T20:26:16.002Z,12.89
2022-08-05T20:28:45.079Z,12.82
2022-08-05T20:31:12.028Z,12.74
2022-08-05T20:33:42.385Z,12.69
2022-08-05T20:36:10.085Z,12.67
2022-08-05T20:38:53.141Z,12.64
2022-08-05T20:41:23.757Z,12.56
2022-08-05T20:43:59.803Z,12.47
2022-08-05T20:46:28.517Z,12.44
2022-08-05T20:48:55.417Z,12.39
2022-08-05T20:51:22.305Z,12.32
2022-08-05T20:53:56.809Z,12.23
2022-08-05T20:56:29.748Z,12.16
2022-08-05T20:59:00.114Z,12.08
2022-08-05T21:01:39.070Z,12.01
2022-08-05T21:04:10.479Z,11.96
2022-08-05T21:06:45.366Z,11.93
2022-08-05T21:09:14.222Z,11.88
2022-08-05T21:12:10.756Z,11.85
2022-08-05T21:14:34.638Z,11.81
2022-08-05T21:17:06.073Z,11.79
2022-08-05T21:19:46.611Z,11.77
2022-08-05T21:22:14.831Z,11.73
2022-08-05T21:24:44.740Z,11.73
2022-08-05T21:27:16.199Z,11.71
2022-08-05T21:29:48.282Z,11.71
2022-08-05T21:32:19.793Z,11.70
2022-08-05T21:35:09.012Z,11.69
2022-08-05T21:37:34.975Z,11.67
2022-08-05T21:40:13.820Z,11.57
2022-08-05T21:42:44.585Z,11.56
2022-08-05T21:45:12.271Z,11.52
2022-08-05T21:47:56.192Z,11.40
2022-08-05T21:50:26.500Z,11.29
2022-08-05T21:52:59.116Z,11.17
2022-08-05T21:55:42.942Z,11.08
2022-08-05T21:58:24.826Z,10.93
2022-08-05T22:00:59.592Z,10.83
2022-08-05T22:03:48.984Z,10.71
2022-08-05T22:06:13.544Z,10.62
2022-08-05T22:08:42.471Z,10.52
2022-08-05T22:11:15.754Z,10.42
2022-08-05T22:14:19.895Z,10.32
2022-08-05T22:16:42.017Z,10.21
2022-08-05T22:20:01.116Z,10.14
2022-08-05T22:22:05.612Z,10.06
2022-08-05T22:24:52.289Z,9.94
2022-08-05T22:28:10.348Z,9.85
2022-08-05T22:30:55.498Z,9.74
2022-08-05T22:33:57.106Z,9.70
2022-08-05T22:36:14.724Z,9.61
2022-08-05T22:38:48.118Z,9.48
2022-08-05T22:42:04.422Z,9.43
2022-08-05T22:44:03.960Z,9.32
2022-08-05T22:46:31.217Z,9.26
2022-08-05T22:48:59.341Z,9.20
2022-08-05T22:52:04.700Z,9.14
2022-08-05T22:54:13.513Z,9.07
2022-08-05T22:56:40.964Z,9.00
2022-08-05T22:59:43.941Z,8.93
2022-08-05T23:02:05.501Z,8.87
2022-08-05T23:04:34.984Z,8.80
2022-08-05T23:07:02.642Z,8.75
2022-08-05T23:09:58.004Z,8.62
2022-08-05T23:12:23.870Z,8.61
2022-08-05T23:14:51.739Z,8.58
2022-08-05T23:17:34.624Z,8.53
2022-08-05T23:20:16.440Z,8.40
2022-08-05T23:22:43.855Z,8.41
2022-08-05T23:25:17.059Z,8.38
2022-08-05T23:28:07.066Z,8.40
2022-08-05T23:30:40.499Z,8.38
2022-08-05T23:33:16.335Z,8.32
2022-08-05T23:35:49.377Z,8.27
2022-08-05T23:38:16.970Z,8.18
2022-08-05T23:40:49.870Z,8.17
2022-08-05T23:43:25.300Z,8.12
2022-08-05T23:46:21.321Z,8.08
2022-08-05T23:48:59.772Z,8.03
2022-08-05T23:51:53.505Z,7.96
2022-08-05T23:54:38.276Z,7.87
2022-08-05T23:57:07.224Z,7.80
